createdAt,value
2017-10-21T00:00:45.920Z,10.90
2017-10-21T00:03:11.892Z,10.90
2017-10-21T00:05:37.869Z,10.90
2017-10-21T00:08:04.561Z,11.00
2017-10-21T00:10:30.537Z,11.00
2017-10-21T00:12:56.505Z,11.00
2017-10-21T00:15:22.480Z,11.10
2017-10-21T00:17:48.454Z,11.10
2017-10-21T00:20:14.424Z,11.10
2017-10-21T00:22:40.379Z,11.30
2017-10-21T00:25:06.369Z,11.40
2017-10-21T00:27:32.318Z,11.40
2017-10-21T00:29:58.258Z,11.10
2017-10-21T00:32:24.229Z,11.10
2017-10-21T00:34:50.242Z,11.00
2017-10-21T00:37:16.182Z,10.90
2017-10-21T00:39:42.142Z,10.80
2017-10-21T00:42:08.081Z,10.80
2017-10-21T00:44:34.084Z,10.70
2017-10-21T00:47:00.025Z,10.70
2017-10-21T00:49:25.964Z,10.70
2017-10-21T00:51:51.948Z,10.60
2017-10-21T00:54:18.624Z,10.60
2017-10-21T00:56:44.593Z,10.60
2017-10-21T00:59:10.524Z,10.60
2017-10-21T01:01:36.518Z,10.70
2017-10-21T01:04:02.518Z,10.70
2017-10-21T01:06:28.503Z,10.70
2017-10-21T01:08:54.455Z,10.90
2017-10-21T01:11:20.438Z,11.00
2017-10-21T01:13:47.166Z,11.20
2017-10-21T01:16:13.154Z,11.20
2017-10-21T01:18:39.843Z,11.40
2017-10-21T01:21:05.826Z,11.30
2017-10-21T01:23:31.765Z,11.40
2017-10-21T01:25:57.766Z,11.40
2017-10-21T01:28:23.712Z,11.40
2017-10-21T01:30:50.433Z,11.50
2017-10-21T01:33:16.398Z,11.50
2017-10-21T01:35:42.333Z,11.60
2017-10-21T01:38:08.302Z,11.60
2017-10-21T01:40:34.251Z,11.60
2017-10-21T01:43:00.218Z,11.70
2017-10-21T01:45:26.154Z,11.60
2017-10-21T01:47:52.150Z,11.60
2017-10-21T01:50:18.094Z,11.50
2017-10-21T01:52:44.043Z,11.50
2017-10-21T01:55:10.019Z,11.50
2017-10-21T01:57:36.767Z,11.50
2017-10-21T02:00:02.745Z,11.50
2017-10-21T02:02:28.682Z,11.40
2017-10-21T02:04:54.641Z,11.50
2017-10-21T02:07:20.572Z,11.50
2017-10-21T02:09:46.576Z,11.50
2017-10-21T02:12:12.512Z,11.60
2017-10-21T02:14:38.476Z,11.60
2017-10-21T02:17:04.461Z,11.60
2017-10-21T02:19:30.401Z,11.70
2017-10-21T02:21:56.362Z,11.80
2017-10-21T02:24:22.294Z,11.90
2017-10-21T02:26:48.269Z,11.90
2017-10-21T02:29:14.198Z,11.70
2017-10-21T02:31:40.210Z,11.80
2017-10-21T02:34:06.216Z,11.70
2017-10-21T02:36:32.172Z,11.80
2017-10-21T02:38:58.107Z,11.90
2017-10-21T02:41:24.090Z,12.00
2017-10-21T02:43:50.765Z,11.90
2017-10-21T02:46:16.710Z,11.90
2017-10-21T02:48:42.689Z,12.00
2017-10-21T02:51:08.638Z,11.90
2017-10-21T02:53:35.369Z,11.90
2017-10-21T02:56:02.046Z,11.80
2017-10-21T02:58:28.006Z,11.90
2017-10-21T03:00:54.745Z,11.90
2017-10-21T03:03:20.721Z,11.90
2017-10-21T03:05:46.666Z,11.80
2017-10-21T03:08:12.650Z,11.80
2017-10-21T03:10:39.377Z,11.80
2017-10-21T03:13:06.061Z,11.70
2017-10-21T03:15:32.019Z,11.70
2017-10-21T03:17:58.002Z,11.70
2017-10-21T03:20:23.936Z,11.70
2017-10-21T03:22:50.660Z,11.80
2017-10-21T03:25:17.338Z,11.90
2017-10-21T03:27:43.277Z,11.90
2017-10-21T03:30:09.998Z,11.90
2017-10-21T03:32:36.745Z,11.90
2017-10-21T03:35:03.474Z,11.90
2017-10-21T03:37:30.150Z,11.90
2017-10-21T03:39:56.123Z,11.90
2017-10-21T03:42:22.062Z,11.80
2017-10-21T03:44:48.000Z,12.00
2017-10-21T03:47:13.982Z,12.10
2017-10-21T03:49:39.963Z,12.00
2017-10-21T03:52:05.945Z,12.10
2017-10-21T03:54:32.662Z,12.00
2017-10-21T03:56:59.362Z,11.90
2017-10-21T03:59:25.354Z,11.90
2017-10-21T04:01:51.318Z,12.00
2017-10-21T04:04:17.257Z,12.00
2017-10-21T04:06:43.246Z,12.10
2017-10-21T04:09:09.213Z,12.10
2017-10-21T04:11:35.159Z,11.90
2017-10-21T04:14:01.133Z,11.90
2017-10-21T04:16:27.069Z,12.00
2017-10-21T04:18:53.007Z,12.10
2017-10-21T04:21:18.974Z,12.10
2017-10-21T04:23:45.665Z,12.10
2017-10-21T04:26:11.677Z,12.00
2017-10-21T04:28:44.521Z,12.10
2017-10-21T04:31:10.493Z,12.10
2017-10-21T04:33:36.494Z,12.10
2017-10-21T04:36:03.188Z,12.10
2017-10-21T04:38:29.197Z,12.10
2017-10-21T04:40:55.137Z,12.10
2017-10-21T04:43:21.821Z,12.20
2017-10-21T04:45:47.795Z,12.20
2017-10-21T04:48:13.769Z,12.20
2017-10-21T04:50:40.502Z,12.10
2017-10-21T04:53:07.209Z,12.10
2017-10-21T04:55:33.961Z,12.20
2017-10-21T04:57:59.905Z,12.20
2017-10-21T05:00:25.874Z,12.20
2017-10-21T05:02:51.816Z,12.20
2017-10-21T05:05:17.792Z,12.10
2017-10-21T05:07:43.733Z,12.10
2017-10-21T05:10:09.724Z,12.10
2017-10-21T05:12:35.673Z,12.10
2017-10-21T05:15:01.613Z,12.00
2017-10-21T05:17:28.342Z,12.20
2017-10-21T05:19:54.357Z,12.20
2017-10-21T05:22:21.077Z,12.40
2017-10-21T05:24:47.778Z,12.30
2017-10-21T05:27:14.521Z,12.30
2017-10-21T05:29:41.205Z,12.20
2017-10-21T05:32:07.299Z,12.30
2017-10-21T05:34:33.290Z,12.30
2017-10-21T05:37:00.061Z,12.40
2017-10-21T05:39:26.106Z,12.50
2017-10-21T05:41:52.802Z,12.30
2017-10-21T05:44:18.741Z,12.30
2017-10-21T05:46:45.465Z,12.30
2017-10-21T05:49:12.181Z,12.30
2017-10-21T05:51:38.908Z,12.30
2017-10-21T05:54:05.613Z,12.50
2017-10-21T05:56:31.593Z,12.40
2017-10-21T05:58:57.529Z,12.50
2017-10-21T06:01:23.518Z,12.50
2017-10-21T06:03:49.464Z,12.50
2017-10-21T06:06:16.169Z,12.20
2017-10-21T06:08:42.151Z,12.20
2017-10-21T06:11:08.117Z,12.20
2017-10-21T06:13:34.937Z,12.20
2017-10-21T06:16:01.730Z,12.30
2017-10-21T06:18:27.720Z,12.30
2017-10-21T06:20:53.710Z,12.40
2017-10-21T06:23:19.650Z,12.40
2017-10-21T06:25:45.584Z,12.40
2017-10-21T06:28:11.622Z,12.40
2017-10-21T06:30:37.618Z,12.30
2017-10-21T06:33:04.370Z,12.40
2017-10-21T06:35:30.300Z,12.40
2017-10-21T06:37:56.244Z,12.30
2017-10-21T06:40:22.234Z,12.20
2017-10-21T06:42:48.183Z,12.10
2017-10-21T06:45:14.908Z,12.10
2017-10-21T06:47:41.593Z,12.00
2017-10-21T06:50:07.549Z,12.00
2017-10-21T06:52:33.544Z,12.00
2017-10-21T06:55:00.289Z,12.00
2017-10-21T06:57:26.229Z,12.00
2017-10-21T06:59:52.172Z,12.00
2017-10-21T07:02:18.150Z,12.00
2017-10-21T07:04:44.113Z,12.00
2017-10-21T07:07:10.122Z,11.90
2017-10-21T07:09:36.109Z,12.00
2017-10-21T07:12:02.097Z,11.90
2017-10-21T07:14:28.078Z,12.00
2017-10-21T07:16:54.022Z,12.00
2017-10-21T07:19:20.001Z,12.00
2017-10-21T07:21:46.006Z,12.00
2017-10-21T07:24:11.945Z,12.10
2017-10-21T07:26:37.906Z,12.10
2017-10-21T07:29:03.898Z,12.10
2017-10-21T07:31:29.880Z,12.20
2017-10-21T07:33:55.848Z,12.20
2017-10-21T07:36:21.781Z,12.20
2017-10-21T07:38:47.757Z,12.20
2017-10-21T07:41:13.697Z,12.30
2017-10-21T07:43:39.679Z,12.50
2017-10-21T07:46:05.640Z,12.70
2017-10-21T07:48:32.378Z,12.70
2017-10-21T07:50:58.317Z,12.70
2017-10-21T07:53:24.257Z,13.00
2017-10-21T07:55:50.234Z,13.10
2017-10-21T07:58:16.169Z,12.80
2017-10-21T08:00:42.153Z,12.90
2017-10-21T08:03:08.099Z,12.90
2017-10-21T08:05:34.054Z,12.90
2017-10-21T08:08:01.058Z,12.90
2017-10-21T08:10:27.010Z,12.90
2017-10-21T08:12:52.991Z,13.00
2017-10-21T08:15:19.000Z,13.00
2017-10-21T08:17:44.939Z,12.90
2017-10-21T08:20:10.926Z,13.00
2017-10-21T08:22:36.877Z,13.00
2017-10-21T08:25:02.834Z,13.10
2017-10-21T08:27:28.812Z,13.10
2017-10-21T08:29:55.493Z,13.10
2017-10-21T08:32:21.472Z,13.00
2017-10-21T08:34:47.460Z,13.10
2017-10-21T08:37:14.149Z,13.30
2017-10-21T08:39:40.133Z,13.30
2017-10-21T08:42:06.113Z,13.30
2017-10-21T08:44:32.839Z,13.30
2017-10-21T08:46:58.837Z,13.30
2017-10-21T08:49:25.533Z,13.60
2017-10-21T08:51:51.473Z,13.60
2017-10-21T08:54:18.194Z,13.60
2017-10-21T08:56:44.909Z,13.50
2017-10-21T08:59:11.597Z,13.40
2017-10-21T09:01:37.594Z,13.40
2017-10-21T09:04:03.547Z,13.50
2017-10-21T09:06:30.278Z,13.50
2017-10-21T09:08:56.966Z,13.50
2017-10-21T09:11:23.014Z,13.50
2017-10-21T09:13:49.701Z,13.60
2017-10-21T09:16:15.683Z,13.60
2017-10-21T09:18:41.673Z,13.80
2017-10-21T09:21:07.613Z,13.80
2017-10-21T09:23:33.606Z,13.80
2017-10-21T09:25:59.558Z,13.80
2017-10-21T09:28:25.534Z,13.80
2017-10-21T09:30:51.497Z,13.80
2017-10-21T09:33:18.220Z,13.80
2017-10-21T09:35:44.909Z,13.90
2017-10-21T09:38:10.971Z,13.90
2017-10-21T09:40:37.025Z,14.10
2017-10-21T09:43:02.980Z,14.00
2017-10-21T09:45:29.753Z,13.90
2017-10-21T09:47:55.692Z,13.90
2017-10-21T09:50:21.770Z,14.00
2017-10-21T09:52:47.713Z,14.00
2017-10-21T09:55:13.656Z,14.00
2017-10-21T09:57:39.653Z,14.00
2017-10-21T10:00:05.635Z,14.10
2017-10-21T10:02:31.628Z,14.20
2017-10-21T10:04:57.573Z,14.20
2017-10-21T10:07:24.253Z,14.20
2017-10-21T10:09:50.253Z,14.20
2017-10-21T10:12:16.190Z,14.20
2017-10-21T10:14:42.187Z,14.20
2017-10-21T10:17:08.137Z,14.20
2017-10-21T10:19:34.870Z,14.20
2017-10-21T10:22:00.880Z,14.20
2017-10-21T10:24:27.257Z,14.20
2017-10-21T10:26:53.196Z,14.40
2017-10-21T10:29:19.927Z,14.30
2017-10-21T10:31:45.885Z,14.30
2017-10-21T10:34:11.843Z,14.30
2017-10-21T10:36:37.830Z,14.30
2017-10-21T10:39:03.817Z,14.40
2017-10-21T10:41:29.761Z,14.40
2017-10-21T10:43:56.466Z,14.50
2017-10-21T10:46:22.449Z,14.50
2017-10-21T10:48:48.426Z,14.40
2017-10-21T10:51:14.404Z,14.50
2017-10-21T10:53:41.144Z,14.60
2017-10-21T10:56:07.100Z,14.60
2017-10-21T10:58:33.101Z,14.60
2017-10-21T11:00:59.077Z,14.70
2017-10-21T11:03:25.049Z,14.70
2017-10-21T11:05:50.988Z,14.70
2017-10-21T11:08:16.985Z,14.70
2017-10-21T11:10:43.674Z,14.80
2017-10-21T11:13:09.654Z,14.70
2017-10-21T11:15:35.622Z,14.80
2017-10-21T11:18:02.311Z,14.90
2017-10-21T11:20:28.296Z,14.80
2017-10-21T11:22:54.239Z,14.90
2017-10-21T11:25:20.235Z,14.90
2017-10-21T11:27:46.177Z,14.90
2017-10-21T11:30:12.893Z,15.00
2017-10-21T11:32:40.323Z,15.00
2017-10-21T11:35:06.277Z,15.00
2017-10-21T11:37:32.265Z,15.10
2017-10-21T11:39:58.979Z,15.30
2017-10-21T11:42:24.920Z,15.30
2017-10-21T11:44:50.901Z,15.30
2017-10-21T11:47:17.600Z,15.30
2017-10-21T11:49:43.596Z,15.20
2017-10-21T11:52:09.544Z,15.10
2017-10-21T11:54:36.241Z,15.20
2017-10-21T11:57:02.250Z,15.10
2017-10-21T11:59:28.197Z,15.30
2017-10-21T12:01:54.885Z,15.20
2017-10-21T12:04:20.866Z,15.20
2017-10-21T12:06:46.822Z,15.40
2017-10-21T12:09:12.809Z,15.50
2017-10-21T12:11:38.787Z,15.70
2017-10-21T12:14:04.769Z,15.80
2017-10-21T12:16:30.746Z,16.00
2017-10-21T12:18:56.686Z,16.20
2017-10-21T12:21:22.673Z,16.50
2017-10-21T12:23:48.641Z,16.80
2017-10-21T12:26:14.628Z,17.40
2017-10-21T12:28:40.625Z,17.90
2017-10-21T12:31:06.577Z,18.20
2017-10-21T12:33:39.459Z,18.10
2017-10-21T12:36:06.889Z,17.60
2017-10-21T12:38:32.908Z,17.60
2017-10-21T12:40:58.894Z,17.80
2017-10-21T12:43:24.837Z,18.00
2017-10-21T12:45:50.814Z,18.10
2017-10-21T12:48:16.756Z,18.00
2017-10-21T12:50:42.738Z,17.90
2017-10-21T12:53:08.722Z,18.00
2017-10-21T12:55:34.746Z,18.00
2017-10-21T12:58:00.693Z,17.90
2017-10-21T13:00:27.421Z,18.30
2017-10-21T13:02:54.129Z,18.20
2017-10-21T13:05:20.121Z,18.20
2017-10-21T13:07:46.070Z,18.10
2017-10-21T13:10:12.758Z,17.70
2017-10-21T13:12:38.751Z,17.70
2017-10-21T13:15:04.741Z,17.70
2017-10-21T13:17:30.725Z,17.80
2017-10-21T13:19:57.435Z,17.60
2017-10-21T13:22:23.401Z,17.60
2017-10-21T13:24:49.337Z,17.40
2017-10-21T13:27:15.319Z,17.80
2017-10-21T13:29:41.321Z,18.60
2017-10-21T13:32:07.322Z,19.10
2017-10-21T13:34:33.275Z,19.20
2017-10-21T13:36:59.267Z,18.90
2017-10-21T13:39:25.230Z,18.50
2017-10-21T13:41:51.228Z,18.20
2017-10-21T13:44:17.957Z,17.80
2017-10-21T13:46:44.685Z,17.50
2017-10-21T13:49:10.737Z,17.50
2017-10-21T13:51:36.850Z,17.30
2017-10-21T13:54:02.874Z,17.30
2017-10-21T13:56:28.816Z,17.20
2017-10-21T13:58:55.508Z,17.10
2017-10-21T14:01:21.490Z,17.10
2017-10-21T14:03:47.433Z,16.90
2017-10-21T14:06:13.408Z,17.00
2017-10-21T14:08:39.366Z,17.00
2017-10-21T14:11:05.424Z,16.90
2017-10-21T14:13:31.419Z,16.80
2017-10-21T14:15:58.141Z,16.60
2017-10-21T14:18:24.937Z,16.60
2017-10-21T14:20:50.905Z,16.60
2017-10-21T14:23:16.858Z,16.50
2017-10-21T14:25:42.854Z,16.50
2017-10-21T14:28:08.874Z,16.50
2017-10-21T14:30:34.934Z,16.50
2017-10-21T14:33:00.890Z,16.40
2017-10-21T14:35:26.861Z,16.40
2017-10-21T14:37:52.924Z,16.30
2017-10-21T14:40:19.697Z,16.40
2017-10-21T14:42:45.717Z,16.30
2017-10-21T14:45:11.714Z,16.30
2017-10-21T14:47:37.705Z,16.20
2017-10-21T14:50:03.775Z,15.90
2017-10-21T14:52:29.867Z,15.90
2017-10-21T14:54:55.842Z,15.80
2017-10-21T14:57:21.932Z,15.80
2017-10-21T14:59:48.665Z,15.80
2017-10-21T15:02:14.781Z,15.80
2017-10-21T15:04:40.733Z,15.80
2017-10-21T15:07:06.817Z,15.80
2017-10-21T15:09:32.811Z,15.80
2017-10-21T15:11:58.756Z,15.80
2017-10-21T15:14:24.730Z,15.80
2017-10-21T15:16:50.784Z,15.80
2017-10-21T15:19:16.741Z,15.70
2017-10-21T15:21:42.721Z,15.70
2017-10-21T15:24:08.701Z,15.70
2017-10-21T15:26:34.663Z,15.80
2017-10-21T15:29:01.493Z,15.60
2017-10-21T15:31:28.185Z,15.70
2017-10-21T15:33:54.125Z,15.70
2017-10-21T15:36:20.849Z,15.90
2017-10-21T15:38:47.595Z,15.80
2017-10-21T15:41:13.533Z,15.80
2017-10-21T15:43:39.560Z,15.70
2017-10-21T15:46:05.533Z,15.80
2017-10-21T15:48:32.563Z,15.70
2017-10-21T15:50:58.552Z,15.70
2017-10-21T15:53:24.510Z,15.60
2017-10-21T15:55:50.508Z,15.50
2017-10-21T15:58:16.484Z,15.50
2017-10-21T16:00:42.541Z,15.50
2017-10-21T16:03:08.494Z,15.30
2017-10-21T16:05:34.514Z,15.30
2017-10-21T16:08:00.556Z,15.30
2017-10-21T16:10:26.514Z,15.30
2017-10-21T16:12:53.225Z,15.60
2017-10-21T16:15:19.950Z,15.60
2017-10-21T16:17:46.629Z,15.40
2017-10-21T16:20:12.582Z,15.40
2017-10-21T16:22:39.590Z,15.20
2017-10-21T16:25:05.625Z,15.10
2017-10-21T16:27:32.313Z,15.10
2017-10-21T16:29:58.302Z,15.10
2017-10-21T16:32:24.290Z,15.30
2017-10-21T16:34:50.982Z,14.90
2017-10-21T16:37:16.995Z,14.90
2017-10-21T16:39:43.700Z,14.70
2017-10-21T16:42:09.674Z,14.70
2017-10-21T16:44:35.693Z,14.70
2017-10-21T16:47:01.633Z,14.70
2017-10-21T16:49:27.612Z,14.70
2017-10-21T16:51:53.593Z,14.70
2017-10-21T16:54:19.554Z,14.70
2017-10-21T16:56:45.548Z,14.60
2017-10-21T16:59:11.593Z,14.60
2017-10-21T17:01:38.353Z,14.50
2017-10-21T17:04:04.336Z,14.50
2017-10-21T17:06:31.054Z,14.50
2017-10-21T17:08:57.742Z,14.40
2017-10-21T17:11:23.738Z,14.40
2017-10-21T17:13:49.690Z,14.40
2017-10-21T17:16:15.636Z,14.30
2017-10-21T17:18:41.613Z,14.30
2017-10-21T17:21:08.323Z,14.40
2017-10-21T17:23:34.360Z,14.40
2017-10-21T17:26:01.082Z,14.30
2017-10-21T17:28:27.768Z,14.30
2017-10-21T17:30:53.761Z,14.30
2017-10-21T17:33:19.746Z,14.30
2017-10-21T17:35:45.709Z,14.30
2017-10-21T17:38:11.741Z,14.20
2017-10-21T17:40:38.430Z,14.20
2017-10-21T17:43:04.394Z,14.20
2017-10-21T17:45:30.385Z,14.10
2017-10-21T17:47:57.076Z,14.00
2017-10-21T17:50:23.017Z,14.00
2017-10-21T17:52:49.742Z,13.90
2017-10-21T17:55:16.478Z,13.90
2017-10-21T17:57:43.168Z,13.90
2017-10-21T18:00:09.155Z,13.90
2017-10-21T18:02:35.136Z,13.90
2017-10-21T18:05:01.125Z,13.90
2017-10-21T18:07:27.809Z,13.80
2017-10-21T18:09:53.753Z,13.80
2017-10-21T18:12:20.481Z,13.70
2017-10-21T18:14:47.169Z,13.70
2017-10-21T18:17:13.148Z,13.70
2017-10-21T18:19:39.094Z,13.70
2017-10-21T18:22:05.081Z,13.80
2017-10-21T18:24:31.049Z,13.70
2017-10-21T18:26:57.063Z,13.80
2017-10-21T18:29:23.037Z,13.80
2017-10-21T18:31:48.973Z,13.90
2017-10-21T18:34:15.025Z,13.80
2017-10-21T18:36:41.002Z,13.70
2017-10-21T18:39:06.969Z,13.50
2017-10-21T18:41:32.959Z,13.50
2017-10-21T18:43:58.925Z,13.50
2017-10-21T18:46:24.897Z,13.40
2017-10-21T18:48:50.841Z,13.50
2017-10-21T18:51:16.837Z,13.50
2017-10-21T18:59:36.435Z,13.60
2017-10-21T19:02:03.146Z,13.40
2017-10-21T19:04:29.579Z,13.40
2017-10-21T19:06:55.597Z,13.50
2017-10-21T19:09:22.318Z,13.60
2017-10-21T19:11:49.033Z,13.60
2017-10-21T19:14:14.976Z,13.60
2017-10-21T19:16:43.691Z,13.70
2017-10-21T19:19:09.644Z,13.60
2017-10-21T19:21:36.130Z,13.70
2017-10-21T19:24:02.378Z,13.70
2017-10-21T19:26:28.330Z,13.70
2017-10-21T19:28:54.310Z,13.70
2017-10-21T19:31:20.313Z,13.70
2017-10-21T19:33:46.373Z,13.60
2017-10-21T19:36:12.469Z,13.50
2017-10-21T19:38:38.458Z,13.40
2017-10-21T19:41:04.419Z,13.50
2017-10-21T19:43:31.149Z,13.50
2017-10-21T19:45:57.197Z,13.50
2017-10-21T19:48:23.894Z,13.50
2017-10-21T19:50:49.921Z,13.50
2017-10-21T19:53:15.985Z,13.50
2017-10-21T19:55:42.002Z,13.50
2017-10-21T19:58:07.986Z,13.50
2017-10-21T20:00:33.921Z,13.60
2017-10-21T20:03:00.609Z,13.70
2017-10-21T20:05:26.605Z,13.70
2017-10-21T20:07:52.573Z,13.60
2017-10-21T20:10:25.601Z,13.60
2017-10-21T20:12:51.537Z,13.60
2017-10-21T20:15:17.802Z,13.60
2017-10-21T20:17:44.227Z,13.70
2017-10-21T20:20:11.029Z,13.60
2017-10-21T20:22:36.978Z,13.60
2017-10-21T20:25:03.703Z,13.70
2017-10-21T20:27:29.657Z,13.70
2017-10-21T20:29:56.344Z,13.70
2017-10-21T20:32:22.328Z,13.60
2017-10-21T20:34:49.769Z,13.60
2017-10-21T20:37:15.944Z,13.60
2017-10-21T20:39:42.681Z,13.70
2017-10-21T20:42:08.637Z,13.70
2017-10-21T20:44:34.589Z,13.70
2017-10-21T20:47:01.319Z,13.70
2017-10-21T20:49:28.067Z,13.60
2017-10-21T20:51:54.038Z,13.60
2017-10-21T20:54:20.735Z,13.50
2017-10-21T20:56:46.754Z,13.50
2017-10-21T20:59:12.706Z,13.50
2017-10-21T21:01:38.653Z,13.50
2017-10-21T21:04:04.757Z,13.50
2017-10-21T21:06:30.716Z,13.50
2017-10-21T21:08:56.681Z,13.50
2017-10-21T21:11:22.737Z,13.50
2017-10-21T21:13:49.478Z,13.50
2017-10-21T21:16:15.510Z,13.50
2017-10-21T21:18:42.250Z,13.40
2017-10-21T21:21:08.229Z,13.30
2017-10-21T21:23:34.170Z,13.40
2017-10-21T21:26:00.143Z,13.40
2017-10-21T21:28:26.094Z,13.40
2017-10-21T21:30:52.109Z,13.50
2017-10-21T21:33:18.119Z,13.40
2017-10-21T21:35:44.204Z,13.40
2017-10-21T21:38:10.145Z,13.40
2017-10-21T21:40:36.230Z,13.50
2017-10-21T21:43:02.192Z,13.50
2017-10-21T21:45:28.157Z,13.50
2017-10-21T21:47:54.157Z,13.50
2017-10-21T21:50:20.169Z,13.40
2017-10-21T21:52:46.349Z,13.50
2017-10-21T21:55:13.105Z,13.50
2017-10-21T21:57:39.118Z,13.50
2017-10-21T22:00:05.113Z,13.60
2017-10-21T22:02:31.804Z,13.50
2017-10-21T22:04:57.748Z,13.50
2017-10-21T22:07:23.767Z,13.50
2017-10-21T22:09:49.792Z,13.40
2017-10-21T22:12:15.974Z,13.50
2017-10-21T22:14:41.973Z,13.30
2017-10-21T22:17:07.921Z,13.30
2017-10-21T22:19:33.897Z,13.30
2017-10-21T22:21:59.888Z,13.30
2017-10-21T22:24:25.829Z,13.40
2017-10-21T22:26:51.889Z,13.40
2017-10-21T22:29:18.086Z,13.40
2017-10-21T22:31:44.159Z,13.30
2017-10-21T22:34:10.158Z,13.30
2017-10-21T22:36:36.846Z,13.30
2017-10-21T22:39:02.803Z,13.30
2017-10-21T22:41:28.773Z,13.30
2017-10-21T22:43:55.457Z,13.40
2017-10-21T22:46:21.470Z,13.40
2017-10-21T22:48:48.280Z,13.50
2017-10-21T22:51:14.361Z,13.40
2017-10-21T22:53:40.317Z,13.50
2017-10-21T22:56:06.292Z,13.50
2017-10-21T22:58:32.297Z,13.50
2017-10-21T23:00:58.269Z,13.50
2017-10-21T23:03:24.318Z,13.50
2017-10-21T23:05:50.350Z,13.50
2017-10-21T23:08:16.437Z,13.50
2017-10-21T23:10:42.381Z,13.50
2017-10-21T23:13:08.321Z,13.50
2017-10-21T23:15:34.298Z,13.50
2017-10-21T23:18:00.240Z,13.40
2017-10-21T23:20:26.227Z,13.40
2017-10-21T23:22:52.241Z,13.60
2017-10-21T23:25:18.337Z,13.60
2017-10-21T23:27:44.430Z,13.50
2017-10-21T23:30:10.397Z,13.40
2017-10-21T23:32:36.342Z,13.30
2017-10-21T23:35:02.318Z,13.40
2017-10-21T23:37:28.999Z,13.20
2017-10-21T23:39:54.977Z,13.20
2017-10-21T23:42:20.970Z,13.20
2017-10-21T23:44:47.012Z,13.10
2017-10-21T23:47:13.014Z,13.10
2017-10-21T23:49:38.962Z,13.00
2017-10-21T23:52:04.936Z,13.00
2017-10-21T23:54:30.892Z,12.80
2017-10-21T23:56:56.897Z,12.90
2017-10-21T23:59:22.883Z,13.00
